Time;durP1;ratioP1;P1;durP2;ratioP2;P2;SDS_P1;SDS_P2;PMS_P1;PMS_P2;Temp;Humidity;BMP_temperature;BMP_pressure;BME280_temperature;BME280_humidity;BME280_pressure;Samples;Min_cycle;Max_cycle;Signal;HPM_P1;HPM_P2
2022/08/11 00:01:26;;;;;;;2.97;1.70;;;13.90;55.00;;;;;;5069920;28;20206;-39
2022/08/11 00:03:59;;;;;;;3.45;2.03;;;13.90;55.00;;;;;;5069921;28;20669;-37
2022/08/11 00:06:33;;;;;;;6.63;2.25;;;13.90;54.90;;;;;;5069357;28;20219;-42
2022/08/11 00:09:05;;;;;;;3.67;2.22;;;13.90;54.90;;;;;;5070357;28;20286;-37
2022/08/11 00:11:39;;;;;;;3.75;2.30;;;13.90;54.80;;;;;;5069801;28;20634;-37
2022/08/11 00:14:18;;;;;;;4.47;2.45;;;13.90;54.80;;;;;;5069779;28;20278;-37
2022/08/11 00:16:57;;;;;;;5.00;2.28;;;13.90;54.80;;;;;;5069559;28;20214;-37
2022/08/11 00:19:30;;;;;;;4.38;2.60;;;13.90;54.70;;;;;;5069657;28;20729;-37
2022/08/11 00:22:02;;;;;;;3.55;1.95;;;14.00;54.60;;;;;;5069531;28;20191;-37
2022/08/11 00:24:37;;;;;;;4.20;2.50;;;14.00;54.60;;;;;;5068286;28;20223;-41
2022/08/11 00:27:08;;;;;;;5.55;2.13;;;14.00;54.60;;;;;;5069775;28;20693;-37
2022/08/11 00:29:39;;;;;;;5.13;2.40;;;14.00;54.50;;;;;;5069774;28;20241;-37
2022/08/11 00:32:17;;;;;;;3.95;2.15;;;14.00;54.40;;;;;;5070176;28;20190;-37
2022/08/11 00:34:48;;;;;;;2.90;1.95;;;14.00;54.30;;;;;;5069346;28;20217;-37
2022/08/11 00:37:23;;;;;;;5.15;2.45;;;14.00;54.40;;;;;;5069252;28;20785;-37
2022/08/11 00:39:55;;;;;;;6.72;2.50;;;14.00;54.30;;;;;;5049354;28;20214;-37
2022/08/11 00:42:42;;;;;;;4.68;2.33;;;14.00;54.30;;;;;;5050471;28;20253;-42
2022/08/11 00:45:19;;;;;;;4.40;2.20;;;14.00;54.30;;;;;;5050688;28;20225;-37
2022/08/11 00:48:04;;;;;;;4.97;2.17;;;14.00;54.30;;;;;;5069013;28;20201;-37
2022/08/11 00:50:46;;;;;;;4.15;1.85;;;14.00;54.30;;;;;;5070504;28;20198;-37
2022/08/11 00:53:36;;;;;;;3.58;1.70;;;14.00;54.50;;;;;;5072844;28;20190;-38
2022/08/11 00:56:44;;;;;;;3.50;2.10;;;14.10;54.60;;;;;;5072329;28;20336;-43
2022/08/11 00:59:35;;;;;;;3.80;1.70;;;14.10;54.60;;;;;;5072065;28;20207;-38
2022/08/11 01:02:18;;;;;;;3.15;1.80;;;14.10;54.60;;;;;;5073121;28;20203;-43
2022/08/11 01:05:21;;;;;;;4.40;2.05;;;14.10;54.60;;;;;;5073022;28;20218;-38
2022/08/11 01:08:38;;;;;;;3.78;1.98;;;14.20;54.60;;;;;;5039095;28;20654;-42
2022/08/11 01:11:46;;;;;;;2.90;1.80;;;14.20;54.60;;;;;;5072497;28;20191;-38
2022/08/11 01:14:45;;;;;;;3.83;1.65;;;14.20;54.60;;;;;;5063189;28;20643;-41
2022/08/11 01:17:48;;;;;;;2.63;1.70;;;14.20;54.60;;;;;;5073036;28;20218;-40
2022/08/11 01:20:38;;;;;;;3.13;2.13;;;14.20;54.70;;;;;;5045552;28;20212;-39
2022/08/11 01:24:09;;;;;;;4.28;2.30;;;14.30;54.70;;;;;;5062417;28;20571;-37
2022/08/11 01:27:14;;;;;;;6.03;3.00;;;14.30;54.70;;;;;;5072579;28;20378;-37
2022/08/11 01:30:11;;;;;;;5.00;2.25;;;14.30;54.60;;;;;;5071333;28;20194;-38
2022/08/11 01:33:13;;;;;;;2.85;1.85;;;14.30;54.60;;;;;;5092796;28;20213;-41
2022/08/11 01:36:31;;;;;;;3.63;1.90;;;14.40;54.60;;;;;;5074184;28;20222;-37
2022/08/11 01:39:27;;;;;;;4.57;2.28;;;14.40;54.60;;;;;;5033129;28;20196;-37
2022/08/11 01:45:35;;;;;;;6.32;2.35;;;14.40;54.60;;;;;;5058308;28;20237;-39
2022/08/11 01:48:16;;;;;;;3.55;2.50;;;14.50;54.50;;;;;;5072647;28;20286;-37
2022/08/11 01:51:10;;;;;;;4.90;1.98;;;14.50;54.50;;;;;;5075325;28;20205;-38
2022/08/11 01:53:50;;;;;;;6.47;2.28;;;14.50;54.50;;;;;;5092165;28;20197;-37
2022/08/11 01:56:35;;;;;;;5.15;1.90;;;14.50;54.40;;;;;;5087417;28;20236;-38
2022/08/11 01:59:15;;;;;;;4.18;2.05;;;14.50;54.50;;;;;;5072563;28;20209;-38
2022/08/11 02:02:17;;;;;;;4.43;2.00;;;14.60;54.50;;;;;;5071079;28;20230;-40
2022/08/11 02:04:57;;;;;;;4.00;1.80;;;14.60;54.40;;;;;;5071320;28;20230;-37
2022/08/11 02:07:37;;;;;;;2.53;1.90;;;14.70;54.30;;;;;;5070989;28;20272;-38
2022/08/11 02:13:23;;;;;;;3.42;1.80;;;14.70;54.30;;;;;;5071635;28;20202;-38
2022/08/11 02:16:07;;;;;;;3.25;1.70;;;14.80;54.30;;;;;;5072052;28;20215;-37
2022/08/11 02:24:36;;;;;;;2.45;2.05;;;14.80;54.10;;;;;;5071531;28;20233;-38
2022/08/11 02:27:17;;;;;;;3.63;2.28;;;14.80;54.00;;;;;;5072188;28;20634;-38
2022/08/11 02:30:06;;;;;;;3.95;2.53;;;14.80;53.90;;;;;;5072069;28;20195;-37
2022/08/11 02:35:53;;;;;;;4.90;2.67;;;14.80;53.80;;;;;;5009489;28;20213;-37
2022/08/11 02:38:31;;;;;;;4.40;2.40;;;14.80;53.70;;;;;;5051752;28;20195;-40
2022/08/11 02:44:10;;;;;;;4.47;2.47;;;14.80;54.30;;;;;;5070753;28;20221;-43
2022/08/11 02:46:51;;;;;;;5.85;2.90;;;14.80;53.70;;;;;;5070351;28;20674;-40
2022/08/11 02:49:55;;;;;;;3.80;2.30;;;14.70;53.70;;;;;;5071163;28;20674;-40
2022/08/11 02:52:36;;;;;;;4.90;2.55;;;14.80;54.20;;;;;;5070916;28;20190;-37
2022/08/11 02:55:24;;;;;;;4.55;2.45;;;14.80;53.50;;;;;;5071105;28;20722;-38
2022/08/11 02:58:04;;;;;;;4.28;2.70;;;14.80;53.50;;;;;;5070659;28;20201;-37
2022/08/11 03:00:48;;;;;;;3.78;2.60;;;14.80;53.60;;;;;;5066517;28;20539;-41
2022/08/11 03:03:27;;;;;;;5.10;2.70;;;14.80;53.60;;;;;;5067824;28;20202;-40
2022/08/11 03:06:10;;;;;;;4.45;2.83;;;14.80;53.70;;;;;;5070449;28;20233;-42
2022/08/11 03:09:04;;;;;;;4.93;2.47;;;14.80;53.70;;;;;;5051315;28;20201;-38
2022/08/11 03:17:56;;;;;;;3.85;2.30;;;14.80;53.70;;;;;;5084537;28;20205;-38
2022/08/11 03:20:35;;;;;;;3.58;2.20;;;14.80;53.60;;;;;;5072587;28;20268;-37
2022/08/11 03:23:13;;;;;;;5.20;2.20;;;14.80;53.60;;;;;;5070090;28;20205;-38
2022/08/11 03:25:56;;;;;;;3.35;2.00;;;14.80;53.60;;;;;;5069091;28;20219;-39
2022/08/11 03:28:33;;;;;;;3.88;2.15;;;14.80;53.60;;;;;;5069574;28;20565;-37
2022/08/11 03:31:25;;;;;;;4.00;1.70;;;14.80;53.60;;;;;;5070219;28;20209;-38
2022/08/11 03:34:01;;;;;;;3.58;1.95;;;14.80;53.50;;;;;;5069681;28;20675;-41
2022/08/11 03:36:56;;;;;;;2.97;1.77;;;14.80;53.60;;;;;;5074371;28;20296;-37
2022/08/11 03:39:42;;;;;;;3.45;1.83;;;14.80;53.70;;;;;;5082792;28;20194;-42
2022/08/11 03:42:20;;;;;;;3.33;1.92;;;14.80;53.70;;;;;;5090349;28;20205;-40
2022/08/11 03:45:07;;;;;;;2.67;1.70;;;14.80;53.60;;;;;;5088689;28;20233;-39
2022/08/11 03:47:50;;;;;;;3.90;2.00;;;14.80;53.60;;;;;;5089838;28;20951;-37
2022/08/11 03:50:48;;;;;;;3.15;1.98;;;14.80;53.60;;;;;;5078607;28;20270;-37
2022/08/11 03:53:33;;;;;;;3.20;1.88;;;14.80;53.60;;;;;;5067166;28;20285;-37
2022/08/11 03:57:02;;;;;;;3.08;2.13;;;14.80;53.70;;;;;;5069069;28;20222;-40
2022/08/11 04:00:09;;;;;;;2.80;1.77;;;14.80;53.70;;;;;;5055587;28;20198;-42
2022/08/11 04:03:13;;;;;;;3.28;1.98;;;14.80;53.60;;;;;;5071253;28;20201;-43
2022/08/11 04:06:30;;;;;;;3.22;1.90;;;14.80;53.50;;;;;;5067366;28;20738;-41
2022/08/11 04:09:30;;;;;;;3.72;2.08;;;14.80;53.60;;;;;;5032822;28;20195;-37
2022/08/11 04:12:27;;;;;;;4.80;2.13;;;14.80;53.60;;;;;;5054708;28;20224;-37
2022/08/11 04:18:52;;;;;;;4.25;2.10;;;14.70;53.50;;;;;;5038913;28;20673;-37
2022/08/11 04:22:09;;;;;;;4.20;2.30;;;14.70;53.50;;;;;;5057304;28;20639;-37
2022/08/11 04:25:15;;;;;;;3.45;2.10;;;14.70;53.60;;;;;;5066630;28;20222;-37
2022/08/11 04:28:10;;;;;;;3.20;1.95;;;14.70;53.60;;;;;;5044418;28;20195;-41
2022/08/11 04:31:04;;;;;;;3.75;2.00;;;14.70;53.70;;;;;;5050328;28;20657;-39
2022/08/11 04:34:07;;;;;;;3.05;1.98;;;14.70;53.70;;;;;;5071513;28;20230;-41
2022/08/11 04:40:35;;;;;;;3.53;2.40;;;14.70;53.60;;;;;;5073244;28;20651;-38
2022/08/11 04:43:39;;;;;;;4.35;2.20;;;14.70;53.60;;;;;;5073499;28;20226;-38
2022/08/11 04:46:28;;;;;;;2.20;1.70;;;14.60;53.50;;;;;;5072570;28;20241;-37
2022/08/11 05:02:49;;;;;;;3.15;1.80;;;14.60;53.60;;;;;;5073635;28;20256;-38
2022/08/11 05:05:33;;;;;;;5.28;2.10;;;14.60;53.60;;;;;;5073337;28;20222;-40
2022/08/11 05:08:37;;;;;;;2.70;1.55;;;14.60;53.60;;;;;;5073009;28;20194;-37
2022/08/11 05:11:30;;;;;;;3.58;1.88;;;14.60;53.60;;;;;;5073449;28;20205;-41
2022/08/11 05:37:27;;;;;;;2.33;1.95;;;14.40;53.70;;;;;;5055456;28;20689;-38
2022/08/11 05:57:01;;;;;;;2.95;1.98;;;14.50;55.10;;;;;;5074530;28;20739;-37
2022/08/11 05:59:35;;;;;;;3.78;2.55;;;14.50;55.10;;;;;;5051988;28;20199;-37
2022/08/11 06:02:08;;;;;;;2.78;2.25;;;14.40;55.00;;;;;;5051826;28;20203;-37
2022/08/11 06:04:40;;;;;;;3.90;2.05;;;14.40;55.00;;;;;;5054682;28;20229;-38
2022/08/11 06:07:16;;;;;;;2.35;2.13;;;14.40;55.00;;;;;;5071978;28;20720;-37
2022/08/11 06:09:51;;;;;;;4.00;2.30;;;14.40;55.00;;;;;;5071257;28;20198;-37
2022/08/11 06:12:25;;;;;;;3.38;2.33;;;14.40;55.00;;;;;;5071717;28;20209;-43
2022/08/11 06:15:04;;;;;;;3.60;2.13;;;14.40;55.00;;;;;;5070604;28;20203;-38
2022/08/11 06:17:38;;;;;;;2.67;2.22;;;14.40;55.00;;;;;;5074604;28;20587;-40
2022/08/11 06:20:10;;;;;;;3.90;2.22;;;14.40;55.00;;;;;;5091346;28;20289;-37
2022/08/11 06:22:43;;;;;;;3.58;2.38;;;14.40;55.00;;;;;;5091095;28;20194;-37
2022/08/11 06:25:15;;;;;;;2.63;1.90;;;14.30;55.00;;;;;;5092109;28;20229;-37
2022/08/11 06:27:47;;;;;;;2.63;2.30;;;14.30;55.00;;;;;;5074768;28;20218;-37
2022/08/11 06:30:22;;;;;;;5.10;2.47;;;14.30;55.00;;;;;;5071708;28;20202;-38
2022/08/11 06:32:56;;;;;;;3.30;2.22;;;14.30;55.00;;;;;;5070122;28;20187;-38
2022/08/11 06:35:37;;;;;;;3.85;2.30;;;14.20;55.00;;;;;;5070753;28;20214;-38
2022/08/11 06:38:12;;;;;;;3.58;2.17;;;14.20;55.10;;;;;;5070646;28;20209;-37
2022/08/11 06:41:29;;;;;;;2.20;2.00;;;14.20;55.10;;;;;;5070006;28;20198;-37
2022/08/11 06:43:52;;;;;;;3.08;2.45;;;14.20;55.10;;;;;;5071165;28;20268;-37
2022/08/11 06:46:31;;;;;;;2.13;1.90;;;14.20;55.30;;;;;;5071285;28;20251;-37
2022/08/11 06:49:05;;;;;;;2.67;2.20;;;14.20;55.30;;;;;;5070135;28;20236;-37
2022/08/11 06:51:40;;;;;;;2.17;1.98;;;14.20;55.30;;;;;;5071157;28;20205;-40
2022/08/11 06:54:16;;;;;;;2.28;2.08;;;14.20;55.30;;;;;;5070809;28;20190;-38
2022/08/11 07:02:32;;;;;;;2.60;2.20;;;14.10;55.30;;;;;;5070597;28;20210;-37
2022/08/11 07:05:07;;;;;;;3.03;2.13;;;14.10;55.30;;;;;;5070745;28;20214;-37
2022/08/11 07:17:21;;;;;;;2.58;1.90;;;14.00;55.30;;;;;;5070428;28;20220;-41
2022/08/11 07:31:20;;;;;;;3.13;1.88;;;13.90;55.40;;;;;;5050497;28;20725;-38
2022/08/11 07:33:53;;;;;;;2.45;1.80;;;13.80;55.40;;;;;;5069676;28;20235;-38
2022/08/11 07:36:29;;;;;;;3.08;2.30;;;13.80;55.40;;;;;;5090987;28;20233;-38
2022/08/11 07:39:01;;;;;;;2.65;2.17;;;13.80;55.50;;;;;;5089984;28;20278;-43
2022/08/11 07:41:37;;;;;;;2.05;1.85;;;13.70;55.50;;;;;;5082689;28;20199;-38
2022/08/11 07:44:11;;;;;;;2.10;1.90;;;13.70;55.50;;;;;;5070787;28;20206;-42
2022/08/11 07:52:33;;;;;;;2.30;2.10;;;13.70;55.60;;;;;;5070911;28;20716;-37
2022/08/11 07:55:06;;;;;;;2.78;2.10;;;13.60;55.50;;;;;;5070500;28;20251;-38
2022/08/11 08:19:56;;;;;;;1.90;1.60;;;13.50;55.60;;;;;;5070619;28;20194;-39
2022/08/11 08:22:26;;;;;;;2.00;1.70;;;13.50;55.60;;;;;;5070505;28;20209;-38
2022/08/11 08:25:00;;;;;;;2.60;2.17;;;13.40;55.60;;;;;;5070423;28;20199;-36
2022/08/11 08:27:31;;;;;;;2.20;2.00;;;13.40;55.60;;;;;;5070168;28;20199;-36
2022/08/11 08:32:50;;;;;;;2.42;1.77;;;13.40;55.70;;;;;;5069656;28;20202;-37
2022/08/11 08:35:22;;;;;;;2.50;1.90;;;13.30;55.60;;;;;;5069762;28;20195;-37
2022/08/11 08:37:53;;;;;;;3.38;1.90;;;13.30;55.60;;;;;;5070303;28;20194;-37
2022/08/11 08:40:26;;;;;;;2.17;1.80;;;13.30;55.60;;;;;;5070373;28;20203;-37
2022/08/11 08:43:06;;;;;;;2.50;1.83;;;13.30;55.60;;;;;;5069888;28;20226;-37
2022/08/11 08:45:38;;;;;;;2.20;2.00;;;13.30;55.60;;;;;;5069779;28;20222;-40
2022/08/11 08:48:13;;;;;;;4.20;2.03;;;13.30;55.60;;;;;;5070291;28;20550;-37
2022/08/11 08:53:40;;;;;;;1.80;1.70;;;13.20;55.60;;;;;;5070626;28;20320;-37
2022/08/11 08:56:13;;;;;;;2.22;1.63;;;13.20;55.60;;;;;;5070344;28;20223;-41
2022/08/11 08:58:47;;;;;;;1.80;1.70;;;13.20;55.60;;;;;;5070303;28;20273;-37
2022/08/11 09:01:21;;;;;;;2.00;1.83;;;13.20;55.70;;;;;;5070432;28;20202;-40
2022/08/11 09:03:52;;;;;;;2.05;1.85;;;13.20;55.70;;;;;;5070219;28;20194;-37
2022/08/11 09:06:23;;;;;;;3.30;1.80;;;13.20;55.80;;;;;;5069594;28;20256;-37
2022/08/11 09:08:55;;;;;;;2.63;1.92;;;13.20;55.90;;;;;;5069493;28;20198;-37
2022/08/11 09:14:15;;;;;;;2.53;1.85;;;13.20;55.90;;;;;;5073689;28;20210;-37
2022/08/11 09:16:46;;;;;;;2.47;2.00;;;13.20;55.80;;;;;;5073359;28;20888;-37
2022/08/11 09:19:20;;;;;;;2.22;1.95;;;13.10;55.70;;;;;;5073095;28;20199;-40
2022/08/11 09:27:26;;;;;;;2.78;2.17;;;13.10;55.70;;;;;;5070772;28;20316;-38
2022/08/11 09:29:57;;;;;;;2.55;2.30;;;13.10;55.70;;;;;;5071780;28;20194;-40
2022/08/11 09:32:30;;;;;;;2.47;2.00;;;13.00;55.70;;;;;;5071845;28;20187;-40
2022/08/11 09:35:03;;;;;;;2.20;1.75;;;13.00;55.70;;;;;;5059973;28;20270;-41
2022/08/11 09:40:30;;;;;;;2.80;2.00;;;13.00;55.80;;;;;;5072422;28;20707;-37
2022/08/11 09:45:54;;;;;;;2.42;2.22;;;13.00;55.80;;;;;;5069763;28;20229;-37
2022/08/11 09:48:26;;;;;;;2.38;2.17;;;13.00;55.80;;;;;;5061079;28;20199;-37
2022/08/11 09:51:00;;;;;;;2.58;2.33;;;12.90;55.70;;;;;;5072620;28;20203;-37
2022/08/11 09:53:34;;;;;;;2.55;2.20;;;12.90;55.70;;;;;;5072108;28;20195;-46
2022/08/11 09:58:12;;;;;;;2.65;2.10;;;12.90;55.80;;;;;;5071643;28;20214;-49
2022/08/11 09:58:58;;;;;;;2.70;2.13;;;12.90;55.80;;;;;;5071339;28;20201;-40
2022/08/11 10:01:32;;;;;;;3.30;2.50;;;12.90;55.80;;;;;;5070602;28;20206;-41
2022/08/11 10:04:07;;;;;;;2.97;2.20;;;12.90;55.80;;;;;;5071133;28;20655;-39
2022/08/11 10:09:35;;;;;;;3.08;2.60;;;12.80;55.70;;;;;;5072565;28;20202;-45
2022/08/11 10:12:10;;;;;;;2.38;2.17;;;12.80;55.70;;;;;;5070949;28;20226;-37
2022/08/11 10:17:37;;;;;;;2.92;2.38;;;12.80;55.80;;;;;;5071222;28;20284;-37
2022/08/11 10:20:10;;;;;;;2.67;2.47;;;12.80;55.80;;;;;;5091969;28;20198;-37
2022/08/11 10:28:14;;;;;;;3.08;2.38;;;12.80;55.70;;;;;;5057150;28;20669;-46
2022/08/11 10:36:22;;;;;;;3.28;2.30;;;12.70;55.70;;;;;;5071004;28;20265;-45
2022/08/11 10:38:54;;;;;;;3.67;2.65;;;12.70;55.70;;;;;;5071026;28;20800;-38
2022/08/11 10:44:14;;;;;;;3.40;2.45;;;12.70;55.80;;;;;;5071491;28;20739;-40
2022/08/11 10:49:35;;;;;;;3.92;2.70;;;12.60;55.80;;;;;;5071421;28;20336;-40
2022/08/11 11:00:29;;;;;;;3.22;2.42;;;12.60;55.80;;;;;;5070762;28;20213;-46
2022/08/11 11:03:03;;;;;;;3.17;2.30;;;12.60;55.80;;;;;;5070529;28;20206;-38
2022/08/11 11:05:35;;;;;;;3.30;2.35;;;12.60;55.80;;;;;;5070852;28;20724;-46
2022/08/11 11:10:59;;;;;;;3.20;2.53;;;12.60;55.80;;;;;;5070298;28;20561;-45
2022/08/11 11:19:21;;;;;;;3.15;2.40;;;12.50;55.80;;;;;;5090253;28;20594;-43
2022/08/11 11:22:36;;;;;;;3.78;2.60;;;12.50;55.80;;;;;;5078151;28;20275;-46
2022/08/11 11:25:01;;;;;;;4.60;2.40;;;12.50;55.80;;;;;;5065466;28;20187;-38
2022/08/11 11:27:39;;;;;;;2.80;2.40;;;12.50;55.80;;;;;;5070429;28;20240;-44
2022/08/11 11:30:13;;;;;;;3.47;2.45;;;12.50;55.70;;;;;;5069637;28;20545;-45
2022/08/11 11:32:51;;;;;;;3.08;2.25;;;12.40;55.70;;;;;;5070023;28;20194;-46
2022/08/11 11:35:43;;;;;;;3.35;2.35;;;12.40;55.70;;;;;;5069893;28;20541;-43
2022/08/11 11:38:14;;;;;;;2.90;2.47;;;12.40;55.70;;;;;;5070622;28;20285;-39
2022/08/11 11:41:23;;;;;;;3.83;2.58;;;12.40;55.70;;;;;;5069819;28;20194;-38
2022/08/11 11:43:37;;;;;;;3.05;2.47;;;12.40;55.70;;;;;;5070138;28;20252;-37
2022/08/11 11:46:10;;;;;;;3.10;2.10;;;12.40;55.70;;;;;;5070164;28;20244;-40
2022/08/11 11:48:42;;;;;;;2.97;2.22;;;12.40;55.70;;;;;;5069386;28;20696;-43
2022/08/11 11:51:17;;;;;;;2.85;2.50;;;12.40;55.70;;;;;;5070351;28;20244;-49
2022/08/11 11:53:50;;;;;;;3.10;2.40;;;12.30;55.70;;;;;;5070662;28;20198;-39
2022/08/11 11:56:23;;;;;;;2.65;2.33;;;12.30;55.70;;;;;;5070705;28;20218;-39
2022/08/11 12:01:46;;;;;;;3.30;2.40;;;12.30;55.70;;;;;;5070154;28;20205;-37
2022/08/11 12:04:19;;;;;;;3.75;2.50;;;12.30;55.70;;;;;;5070267;28;20564;-42
2022/08/11 12:08:08;;;;;;;2.53;1.92;;;12.30;55.70;;;;;;5069936;28;20229;-37
2022/08/11 12:09:43;;;;;;;3.38;2.20;;;12.30;55.70;;;;;;5069477;28;20278;-40
2022/08/11 12:15:01;;;;;;;2.67;2.30;;;12.20;55.70;;;;;;5070531;28;20275;-43
2022/08/11 12:17:32;;;;;;;3.22;2.30;;;12.20;55.70;;;;;;5070652;28;20198;-40
2022/08/11 12:20:03;;;;;;;3.38;2.45;;;12.20;55.70;;;;;;5070188;28;21007;-39
2022/08/11 12:28:12;;;;;;;3.05;2.20;;;12.20;55.60;;;;;;5070280;28;20281;-39
2022/08/11 12:30:46;;;;;;;3.05;2.20;;;12.20;55.60;;;;;;5070070;28;20198;-44
2022/08/11 12:33:18;;;;;;;3.58;2.63;;;12.10;55.60;;;;;;5070399;28;20199;-37
2022/08/11 12:35:52;;;;;;;4.45;2.40;;;12.10;55.60;;;;;;5069747;28;20694;-42
2022/08/11 12:38:25;;;;;;;3.00;2.20;;;12.10;55.60;;;;;;5070226;28;20903;-50
2022/08/11 12:46:36;;;;;;;2.60;2.10;;;12.10;55.60;;;;;;5073108;28;20237;-37
2022/08/11 12:52:04;;;;;;;3.65;2.30;;;12.10;55.60;;;;;;5074120;28;20198;-41
2022/08/11 12:54:43;;;;;;;2.67;2.05;;;12.00;55.60;;;;;;5073913;28;20199;-52
2022/08/11 13:05:39;;;;;;;3.05;2.30;;;12.00;55.50;;;;;;5073430;28;20678;-48
2022/08/11 13:08:10;;;;;;;3.83;2.25;;;12.00;55.50;;;;;;5073545;28;20226;-42
2022/08/11 13:13:31;;;;;;;3.30;2.30;;;11.90;55.50;;;;;;5073765;28;20197;-47
2022/08/11 13:16:03;;;;;;;3.08;2.15;;;11.90;55.50;;;;;;5072813;28;20222;-49
2022/08/11 13:18:35;;;;;;;3.38;2.00;;;11.90;55.50;;;;;;5073045;28;20191;-50
2022/08/11 13:21:06;;;;;;;3.97;2.22;;;11.90;55.50;;;;;;5072096;28;20202;-49
2022/08/11 13:23:39;;;;;;;2.42;1.90;;;11.90;55.50;;;;;;5072615;28;20654;-55
2022/08/11 13:26:13;;;;;;;3.53;2.00;;;11.90;55.40;;;;;;5072544;28;20215;-44
2022/08/11 13:28:43;;;;;;;3.42;2.10;;;11.90;55.50;;;;;;5072907;28;20199;-41
2022/08/11 13:31:15;;;;;;;2.95;2.00;;;11.90;55.50;;;;;;5072461;28;20198;-40
2022/08/11 13:33:48;;;;;;;2.55;1.90;;;11.90;55.50;;;;;;5071680;28;20199;-39
2022/08/11 13:36:26;;;;;;;3.30;1.90;;;11.90;55.50;;;;;;5072293;28;20238;-44
2022/08/11 13:38:58;;;;;;;3.85;2.17;;;11.90;55.40;;;;;;5072758;28;20906;-43
2022/08/11 13:41:41;;;;;;;3.92;2.20;;;11.90;55.40;;;;;;5072719;28;20195;-49
2022/08/11 13:44:16;;;;;;;2.78;2.28;;;11.80;55.30;;;;;;5072809;28;20205;-44
2022/08/11 13:46:47;;;;;;;2.50;2.00;;;11.80;55.40;;;;;;5072955;28;20230;-46
2022/08/11 13:51:48;;;;;;;2.75;2.17;;;11.80;55.40;;;;;;5050851;28;20215;-47
2022/08/11 13:54:22;;;;;;;4.35;2.10;;;11.80;55.30;;;;;;5052208;28;20196;-45
2022/08/11 13:56:57;;;;;;;2.38;2.03;;;11.80;55.30;;;;;;5060557;28;20225;-46
2022/08/11 13:59:28;;;;;;;2.40;2.08;;;11.80;55.40;;;;;;5071874;28;20205;-46
2022/08/11 14:02:02;;;;;;;3.22;2.00;;;11.70;55.30;;;;;;5071957;28;20194;-47
2022/08/11 14:04:40;;;;;;;2.70;1.80;;;11.70;55.30;;;;;;5068068;28;20196;-47
2022/08/11 14:07:13;;;;;;;2.10;1.90;;;11.70;55.40;;;;;;5032293;28;20676;-46
2022/08/11 14:09:46;;;;;;;4.18;2.15;;;11.70;55.30;;;;;;5032430;28;20200;-47
2022/08/11 14:15:18;;;;;;;2.90;1.80;;;11.70;55.20;;;;;;5032554;28;20203;-47
2022/08/11 14:17:53;;;;;;;3.15;2.03;;;11.70;55.20;;;;;;5032620;28;20203;-45
2022/08/11 14:22:05;;;;;;;2.03;1.65;;;11.70;55.20;;;;;;5041023;28;20572;-45
2022/08/11 14:23:16;;;;;;;2.97;1.73;;;11.60;55.20;;;;;;5051950;28;20195;-47
2022/08/11 14:28:34;;;;;;;2.28;1.88;;;11.60;55.20;;;;;;5071715;28;20706;-49
2022/08/11 14:31:06;;;;;;;4.05;2.15;;;11.60;55.20;;;;;;5072116;28;20682;-45
2022/08/11 14:33:38;;;;;;;2.75;1.83;;;11.60;55.20;;;;;;5071892;28;20222;-46
2022/08/11 14:36:12;;;;;;;4.18;1.92;;;11.60;55.20;;;;;;5056469;28;20251;-46
2022/08/11 14:38:43;;;;;;;2.38;1.67;;;11.60;55.20;;;;;;5052015;28;20210;-50
2022/08/11 14:47:05;;;;;;;3.33;1.85;;;11.50;55.10;;;;;;5051606;28;20238;-48
2022/08/11 14:52:14;;;;;;;3.65;1.80;;;11.50;55.10;;;;;;5494268;22;20226;-48
2022/08/11 14:57:37;;;;;;;2.28;1.77;;;11.50;55.10;;;;;;5025846;28;20330;-37
2022/08/11 15:00:14;;;;;;;1.92;1.58;;;11.40;55.00;;;;;;5031451;28;20197;-40
2022/08/11 15:05:33;;;;;;;2.38;1.70;;;11.50;55.10;;;;;;5031141;28;20214;-40
2022/08/11 15:08:04;;;;;;;2.33;1.88;;;11.50;55.10;;;;;;5030233;28;20234;-36
2022/08/11 15:10:35;;;;;;;2.47;1.90;;;11.40;55.00;;;;;;5030396;28;20601;-36
2022/08/11 15:13:07;;;;;;;3.25;2.03;;;11.40;55.00;;;;;;5030592;28;20196;-37
2022/08/11 15:18:30;;;;;;;1.83;1.65;;;11.40;55.00;;;;;;5031562;28;20219;-41
2022/08/11 15:37:59;;;;;;;2.10;1.60;;;11.30;54.80;;;;;;5030602;28;20311;-43
2022/08/11 15:46:16;;;;;;;2.20;1.70;;;11.20;54.90;;;;;;5031375;28;20227;-43
2022/08/11 15:48:51;;;;;;;2.38;1.40;;;11.20;54.90;;;;;;5031104;28;20685;-49
2022/08/11 15:51:29;;;;;;;2.08;1.65;;;11.30;54.90;;;;;;5029160;28;20226;-40
2022/08/11 15:54:04;;;;;;;3.08;1.73;;;11.20;54.90;;;;;;5030151;28;20204;-37
2022/08/11 15:56:39;;;;;;;2.55;1.70;;;11.20;54.90;;;;;;5029739;28;20227;-50
2022/08/11 16:04:51;;;;;;;1.70;1.55;;;11.20;54.90;;;;;;5030639;28;20210;-51
2022/08/11 16:07:26;;;;;;;1.85;1.52;;;11.20;54.90;;;;;;5029905;28;20234;-44
2022/08/11 16:10:00;;;;;;;4.07;1.70;;;11.20;54.90;;;;;;5026363;28;20200;-37
2022/08/11 16:12:34;;;;;;;2.15;1.52;;;11.10;54.80;;;;;;5010998;28;20200;-48
2022/08/11 16:17:55;;;;;;;2.10;1.45;;;11.10;54.80;;;;;;5010928;28;20213;-37
2022/08/11 16:20:30;;;;;;;2.20;1.63;;;11.10;54.80;;;;;;5012564;28;20204;-44
2022/08/11 16:23:04;;;;;;;1.30;1.20;;;11.10;54.80;;;;;;5016250;28;20234;-41
2022/08/11 16:25:37;;;;;;;1.50;1.33;;;11.10;54.80;;;;;;5034621;28;20682;-37
2022/08/11 16:28:11;;;;;;;1.33;1.23;;;11.10;54.80;;;;;;5034597;28;20227;-39
2022/08/11 16:30:45;;;;;;;2.13;1.40;;;11.10;54.80;;;;;;5034759;28;20658;-47
2022/08/11 16:33:16;;;;;;;2.35;1.50;;;11.10;54.80;;;;;;5034758;28;20200;-45
2022/08/11 16:38:40;;;;;;;2.28;1.83;;;11.10;54.80;;;;;;5034112;28;20338;-43
2022/08/11 16:41:12;;;;;;;2.38;1.50;;;11.10;54.70;;;;;;5034078;28;20655;-40
2022/08/11 16:49:39;;;;;;;1.40;1.30;;;11.00;54.70;;;;;;4953517;29;20195;-45
2022/08/11 16:52:12;;;;;;;2.10;1.55;;;11.00;54.70;;;;;;4953238;29;20255;-46
2022/08/11 16:54:46;;;;;;;2.22;1.40;;;11.00;54.70;;;;;;4995039;28;20564;-44
2022/08/11 17:00:13;;;;;;;1.42;1.10;;;11.00;54.70;;;;;;5022964;28;20626;-38
2022/08/11 17:14:13;;;;;;;2.13;1.50;;;10.90;54.60;;;;;;5033412;28;20219;-39
2022/08/11 17:16:45;;;;;;;2.30;1.30;;;10.90;54.60;;;;;;5033334;28;20306;-37
2022/08/11 17:19:20;;;;;;;2.35;1.30;;;10.90;54.70;;;;;;5033567;28;20651;-40
2022/08/11 17:24:44;;;;;;;1.48;1.20;;;10.90;54.70;;;;;;5031793;28;20239;-40
2022/08/11 17:27:17;;;;;;;2.38;1.40;;;10.90;54.70;;;;;;5025867;28;20234;-40
2022/08/11 17:29:52;;;;;;;1.38;1.27;;;10.90;55.20;;;;;;5033663;28;20215;-37
2022/08/11 17:35:31;;;;;;;1.63;1.13;;;10.80;54.60;;;;;;5033676;28;20199;-37
2022/08/11 17:38:06;;;;;;;1.98;1.33;;;10.80;54.60;;;;;;5033465;28;20674;-37
2022/08/11 17:48:24;;;;;;;2.55;1.20;;;10.80;54.60;;;;;;5032658;28;20211;-37
2022/08/11 17:49:07;;;;;;;2.55;1.42;;;10.80;54.60;;;;;;5032888;28;20258;-37
2022/08/11 18:00:04;;;;;;;2.38;1.40;;;10.70;54.50;;;;;;5032999;28;20206;-40
2022/08/11 18:05:25;;;;;;;2.88;1.40;;;10.70;54.50;;;;;;5017756;28;20204;-40
